Pineora, Georgia
Current Conditions -  °F | °C
As of 7:53 PM on Tuesday 21 Oct 2014 (Local Time) from KSAV Reporting Station
Clear Clear  
Wind Chill: 69°   Ceiling: Unl
Heat Index: 69°   Visibility: 10mi
Dew Point: 57°   Wind: 3mph
Humidity: 65%   Direction: 220°SW
Pressure: 29.91"   Gusts: NA
Location:  32.3167°N, 81.3986°W
Report Text: KSAV 212353Z 22003KT 10SM CLR 21/14 A2991 RMK AO2 SLP128 T02060139 10272 20206 53007
Loading
Personal Weather Stations






























Interactive Weather Map
Tropical Storm Tracking
New forecast layout! Learn more

10-Day Weather Forecast

Advertisements
Track Severe Weather on mobile